• Join FlightAware (Why Join?)
  • Login
  • US Flag 
09:38AM EST


 

Airport Tracker/Info


-or-


 

Live Flight TrackerFlight Track Log ✈ CSN6878 ✈ 01-Feb-2014 ✈ ZWAK / AKU - ZWWW / URC

Flight Track Log - Related Links

Times and Time Zones

All times are in EST time to prevent confusion due to time zone crossing. See the CSN6878 flight status page for this flight to view local times or setup timezone preferences in your user account.

Time Position Orientation Groundspeed Altitude Reporting Facility
EST Latitude Longitude Course Direction KTS MPH feet Rate Location/Type
11:22PM 41.6032 81.1219 61° Northeast  Level Estimated
11:23PM 41.6594 81.2611 62° Northeast  Level Estimated
11:24PM 41.7154 81.4006 62° Northeast  Level Estimated
11:25PM 41.7713 81.5403 62° Northeast  Level Estimated
11:26PM 41.8270 81.6802 62° Northeast  Level Estimated
11:27PM 41.8825 81.8204 62° Northeast  Level Estimated
11:28PM 41.9379 81.9608 62° Northeast  Level Estimated
11:29PM 41.9930 82.1015 62° Northeast  Level Estimated
11:30PM 42.0480 82.2424 62° Northeast  Level Estimated
11:31PM 42.1029 82.3836 62° Northeast  Level Estimated
11:32PM 42.1576 82.5250 62° Northeast  Level Estimated
11:33PM 42.2120 82.6667 63° Northeast  Level Estimated
11:34PM 42.2664 82.8086 63° Northeast  Level Estimated
11:35PM 42.3205 82.9507 63° Northeast  Level Estimated
11:36PM 42.3745 83.0931 63° Northeast  Level Estimated
11:37PM 42.4282 83.2357 63° Northeast  Level Estimated
11:38PM 42.4819 83.3786 63° Northeast  Level Estimated
11:39PM 42.5353 83.5217 63° Northeast  Level Estimated
11:40PM 42.5886 83.6651 63° Northeast  Level Estimated
11:41PM 42.6416 83.8087 63° Northeast  Level Estimated
11:42PM 42.6945 83.9525 63° Northeast  Level Estimated
11:43PM 42.7472 84.0966 63° Northeast  Level Estimated
11:44PM 42.7998 84.2410 64° Northeast  Level Estimated
11:45PM 42.8521 84.3856 64° Northeast  Level Estimated
11:46PM 42.9043 84.5304 64° Northeast  Level Estimated
11:47PM 42.9563 84.6755 64° Northeast  Level Estimated
11:48PM 43.0081 84.8208 64° Northeast  Level Estimated
11:49PM 43.0597 84.9664 64° Northeast  Level Estimated
11:50PM 43.1111 85.1122 64° Northeast  Level Estimated
11:51PM 43.1624 85.2582 64° Northeast  Level Estimated
11:52PM 43.2135 85.4045 64° Northeast  Level Estimated
11:53PM 43.2643 85.5511 64° Northeast  Level Estimated
11:54PM 43.3150 85.6979 65° Northeast  Level Estimated
11:55PM 43.3655 85.8449 65° Northeast  Level Estimated
11:56PM 43.4158 85.9922 65° Northeast  Level Estimated
11:57PM 43.4660 86.1397 65° Northeast  Level Estimated
11:58PM 43.5159 86.2875 65° Northeast  Level Estimated
11:59PM 43.5656 86.4355 65° Northeast  Level Estimated
12:00AM 43.6152 86.5838 65° Northeast  Level Estimated
12:01AM 43.6646 86.7323 65° Northeast  Level Estimated
12:02AM 43.7137 86.8810 65° Northeast  Level Estimated
12:03AM 43.7627 87.0300 65° Northeast  Level Estimated
12:04AM 43.8115 87.1792 66° East  Level Estimated
12:05AM 43.8601 87.3287 66° East  Level Estimated
12:06AM 43.9071 87.4742 66° East  Level Estimated
12:07AM 43.9071 87.4742 144° Southeast  Level Estimated
12:08AM 43.9071 87.4742 144° Southeast  Level Estimated
12:09AM 43.9071 87.4742 144° Southeast  Level Estimated
12:10AM 43.9071 87.4742 144° Southeast  Level Estimated
12:11AM 43.9071 87.4742 144° Southeast  Level Estimated
12:12AM 43.9071 87.4742 144° Southeast  Level Estimated
12:13AM 43.9071 87.4742 144° Southeast  Level Estimated
12:14AM 43.9071 87.4742 144° Southeast  Level Estimated
12:15AM 43.9071 87.4742 144° Southeast  Level Estimated
12:16AM 43.9071 87.4742 144° Southeast  Level Estimated
12:17AM 43.9071 87.4742 144° Southeast  Level Estimated